KMYR/MYR METAR and TAF weather

Enter ICAO airport designator
Station Type Date Time Source
KMYR METAR 2021/09/16 19:56 UTC NOAA

KMYR 161956Z 12005KT 10SM BKN045 29/23 A2999 RMK AO2 SLPNO T02940228


Station Type Date Time Source
KMYR Decoded METAR 2021/09/16 19:56 UTC NOAA

Myrtle Beach Air Force Base, SC, United States (KMYR) 33-41N 078-56W 8M
Sep 16, 2021 - 03:56 PM EDT / 2021.09.16 1956 UTC
Wind: from the ESE (120 degrees) at 6 MPH (5 KT):0
Visibility: 10 mile(s):0
Sky conditions: mostly cloudy
Temperature: 84.9 F (29.4 C)
Dew Point: 73.0 F (22.8 C)
Relative Humidity: 67%
Pressure (altimeter): 29.99 in. Hg (1015 hPa)
ob: KMYR 161956Z 12005KT 10SM BKN045 29/23 A2999 RMK AO2 SLPNO T02940228
cycle: 20

Station Type Date Time Source
KMYR TAF 2021/09/16 18:22 UTC NOAA

TAF KMYR 161720Z 1618/1718 04007KT P6SM BKN150
FM162000 08006KT P6SM BKN150
FM162300 32005KT P6SM BKN150
FM171000 35006KT P6SM BKN100

Example: see airport list